Oban — PDWJ — position and weather

sailwx.info

Track history (hours):
 
Tides and Currents Weather Stations Pressure Air Temp Water Temp Dewpoint Dewpoint Depression Visibility Wind Speed Wind Dir Waves Ship Positions

Oban

Last reported at 2020-Jul-02 16:00 UTC. Time now 2020-Jul-02 16:20 UTC.
Position N 54°24' E 010°13'.

Length 39 m; draft 2.8 m.

Type: Sailing vessel. MMSI: 246085000.

Date/timePositionNaut miles runAvg speedWind from/ knotsBaromVisibWave heightAir tempDewpointWater temp
2020-Jul-02 16:00N 54°24' E 010°13'0 0.0
2020-Jul-02 14:30N 54°24' E 010°13'5 1.7
2020-Jul-02 11:30N 54°29' E 010°10'3 5.4
2020-Jul-02 11:00N 54°29' E 010°05'1 2.8
2020-Jul-02 10:30N 54°30' E 010°03'3 3.0
2020-Jul-02 09:30N 54°29' E 009°58'1 2.8
2020-Jul-02 09:00N 54°29' E 009°56'3 1.3
2020-Jul-02 06:30N 54°28' E 009°50'0 0.0
2020-Jul-02 04:00N 54°28' E 009°50'0 0.0
2020-Jul-02 03:30N 54°28' E 009°50'0 0.0
2020-Jul-02 02:30N 54°28' E 009°50'0 0.0
2020-Jul-02 01:30N 54°28' E 009°50'0 0.0
2020-Jul-01 23:30N 54°28' E 009°50'0 0.0
2020-Jul-01 18:30N 54°28' E 009°50'0 0.0
2020-Jul-01 16:00N 54°28' E 009°50'0 0.0
2020-Jul-01 13:30N 54°28' E 009°50'11 1.4
2020-Jul-01 05:24N 54°39' E 009°56'0 0.0
2020-Jul-01 04:00N 54°39' E 009°56'0 0.0
2020-Jul-01 02:29N 54°39' E 009°56'0 0.0
2020-Jul-01 00:00N 54°39' E 009°56'0 0.0
2020-Jun-30 21:30N 54°39' E 009°56'0 0.0
2020-Jun-30 18:30N 54°39' E 009°56'0 0.0
2020-Jun-30 18:00N 54°39' E 009°56'0 0.0
2020-Jun-30 15:10N 54°39' E 009°56'0 0.0
2020-Jun-30 14:30N 54°39' E 009°56'0 0.0
2020-Jun-30 13:30N 54°39' E 009°56'0 0.0
2020-Jun-30 11:38N 54°39' E 009°56'0 0.0
2020-Jun-30 07:30N 54°39' E 009°56'0 0.0
2020-Jun-30 06:28N 54°39' E 009°56'0 0.0
2020-Jun-30 03:30N 54°39' E 009°56'0 0.0
2020-Jun-30 02:30N 54°39' E 009°56'0 0.0
2020-Jun-30 00:30N 54°39' E 009°56'0 0.0
2020-Jun-29 23:00N 54°39' E 009°56'0 0.0
2020-Jun-29 22:29N 54°39' E 009°56'0 0.0
2020-Jun-29 21:30N 54°39' E 009°56'0 0.0
2020-Jun-29 16:25N 54°39' E 009°56'0 0.0
2020-Jun-29 16:00N 54°39' E 009°56'0 0.0
2020-Jun-29 13:57N 54°39' E 009°56'0 0.0
2020-Jun-29 13:30N 54°39' E 009°56'4 0.4
2020-Jun-29 05:29N 54°40' E 010°02'0 0.0
2020-Jun-29 04:27N 54°40' E 010°02'0 0.0
2020-Jun-29 00:26N 54°40' E 010°02'0 0.0
2020-Jun-28 23:30N 54°40' E 010°02'0 0.0
2020-Jun-28 22:30N 54°40' E 010°02'0 0.0
2020-Jun-28 22:00N 54°40' E 010°02'0 0.0
2020-Jun-28 21:30N 54°40' E 010°02'4 0.5
2020-Jun-28 13:30N 54°44' E 010°02'9 5.8
2020-Jun-28 12:00N 54°36' E 010°04'16 3.6
2020-Jun-28 07:30N 54°20' E 010°09'0 0.0
2020-Jun-28 05:00N 54°20' E 010°09'0 0.0
2020-Jun-28 02:30N 54°20' E 010°09'0 0.0
2020-Jun-28 01:30N 54°20' E 010°09'0 0.0
2020-Jun-27 23:00N 54°20' E 010°09'0 0.0
2020-Jun-27 22:30N 54°20' E 010°09'0 0.0
2020-Jun-27 19:30N 54°20' E 010°09'0 0.0
2020-Jun-27 19:00N 54°20' E 010°09'0 0.0
2020-Jun-27 16:30N 54°20' E 010°09'0 0.0
2020-Jun-27 14:00N 54°20' E 010°09'0 0.0
2020-Jun-27 13:30N 54°20' E 010°09'0 0.0
2020-Jun-27 09:30N 54°20' E 010°09'0 0.0
2020-Jun-27 08:00N 54°20' E 010°09'0 0.0
2020-Jun-27 07:30N 54°20' E 010°09'0 0.0
2020-Jun-27 06:00N 54°20' E 010°09'0 0.0
2020-Jun-27 02:30N 54°20' E 010°09'0 0.0
2020-Jun-27 02:00N 54°20' E 010°09'0 0.0
2020-Jun-27 01:00N 54°20' E 010°09'0 0.0
2020-Jun-26 23:00N 54°20' E 010°09'0 0.0
2020-Jun-26 21:00N 54°20' E 010°09'0 0.0
2020-Jun-26 20:30N 54°20' E 010°09'0 0.0
2020-Jun-26 19:00N 54°20' E 010°09'0 0.0
2020-Jun-26 17:30N 54°20' E 010°09'0 0.0
2020-Jun-26 16:00N 54°20' E 010°09'0 0.0
2020-Jun-26 14:00N 54°20' E 010°09'0 0.0
2020-Jun-26 13:00N 54°20' E 010°09'0 0.0
2020-Jun-26 12:30N 54°20' E 010°09'0 0.0
2020-Jun-26 12:00N 54°20' E 010°09'0 0.0
2020-Jun-26 11:30N 54°20' E 010°09'0 0.0
2020-Jun-26 11:00N 54°20' E 010°09'0 0.0
2020-Jun-26 08:00N 54°20' E 010°09'0 0.0
2020-Jun-26 07:30N 54°20' E 010°09'0 0.0
2020-Jun-26 07:00N 54°20' E 010°09'0 0.0
2020-Jun-26 06:00N 54°20' E 010°09'0 0.0
2020-Jun-26 05:30N 54°20' E 010°09'0 0.0
2020-Jun-26 02:30N 54°20' E 010°09'0 0.0
2020-Jun-26 00:30N 54°20' E 010°09'0 0.0
2020-Jun-25 20:00N 54°20' E 010°09'0 0.0
2020-Jun-25 19:00N 54°20' E 010°09'0 0.0
2020-Jun-25 18:00N 54°20' E 010°09'0 0.0
2020-Jun-25 16:30N 54°20' E 010°09'0 0.0
2020-Jun-25 14:30N 54°20' E 010°09'0 0.0
2020-Jun-25 13:00N 54°20' E 010°09'0 0.0
2020-Jun-25 12:30N 54°20' E 010°09'0 0.0
2020-Jun-25 12:00N 54°20' E 010°09'0 0.0
2020-Jun-25 11:30N 54°20' E 010°09'0 0.0
2020-Jun-25 09:30N 54°20' E 010°09'0 0.0
2020-Jun-25 08:30N 54°20' E 010°09'0 0.0
2020-Jun-25 05:00N 54°20' E 010°09'0 0.0
2020-Jun-25 04:00N 54°20' E 010°09'0 0.0
2020-Jun-25 03:00N 54°20' E 010°09'0 0.0
2020-Jun-25 02:00N 54°20' E 010°09'0 0.0
2020-Jun-25 01:30N 54°20' E 010°09'0 0.0
2020-Jun-25 00:00N 54°20' E 010°09'0 0.0
2020-Jun-24 21:00N 54°20' E 010°09'0 0.0
2020-Jun-24 18:30N 54°20' E 010°09'0 0.0
2020-Jun-24 15:30N 54°20' E 010°09'0 0.0
2020-Jun-24 14:00N 54°20' E 010°09'6 3.1
2020-Jun-24 12:00N 54°26' E 010°12'1 2.4
2020-Jun-24 11:30N 54°27' E 010°13'7 4.6
2020-Jun-24 10:00N 54°30' E 010°02'7 2.2
2020-Jun-24 06:58N 54°28' E 009°51'0 0.0
2020-Jun-24 05:57N 54°28' E 009°51'0 0.0
2020-Jun-24 00:58N 54°28' E 009°51'0 0.0
2020-Jun-23 22:00N 54°28' E 009°51'0 0.0
2020-Jun-23 21:08N 54°28' E 009°51'0 0.0
2020-Jun-23 18:27N 54°28' E 009°51'0 0.0
2020-Jun-23 17:30N 54°28' E 009°51'2 0.5
2020-Jun-23 13:30N 54°28' E 009°54'4 1.7
2020-Jun-23 11:00N 54°30' E 009°60'1 1.8
2020-Jun-23 10:30N 54°31' E 010°01'1 2.9
2020-Jun-23 10:00N 54°32' E 010°02'2 3.6
2020-Jun-23 09:30N 54°34' E 010°02'4 4.0
2020-Jun-23 08:30N 54°38' E 010°03'1 0.3
2020-Jun-23 05:27N 54°39' E 010°02'0 0.0
2020-Jun-23 04:42N 54°39' E 010°02'0 0.0
2020-Jun-23 04:00N 54°39' E 010°02'0 0.0
2020-Jun-23 03:00N 54°39' E 010°02'0 0.0
2020-Jun-23 01:29N 54°39' E 010°02'0 0.0
2020-Jun-22 23:30N 54°39' E 010°02'0 0.0
2020-Jun-22 21:24N 54°39' E 010°02'0 0.0
2020-Jun-22 20:44N 54°39' E 010°02'0 0.0
2020-Jun-22 20:30N 54°39' E 010°02'0 0.0
2020-Jun-22 20:00N 54°39' E 010°02'0 0.0
2020-Jun-22 16:30N 54°39' E 010°02'  
Track history (hours):
 
Tides and Currents Weather Stations Pressure Air Temp Water Temp Dewpoint Dewpoint Depression Visibility Wind Speed Wind Dir Waves Ship Positions

Oban

Last reported at 2020-Jul-02 16:00 UTC. Time now 2020-Jul-02 16:20 UTC.
Position N 54°24' E 010°13'.

Length 39 m; draft 2.8 m.

Type: Sailing vessel. MMSI: 246085000.

Date/timePositionNaut miles runAvg speedWind from/ knotsBaromVisibWave heightAir tempDewpointWater temp
2020-Jul-02 16:00N 54°24' E 010°13'0 0.0
2020-Jul-02 14:30N 54°24' E 010°13'5 1.7
2020-Jul-02 11:30N 54°29' E 010°10'3 5.4
2020-Jul-02 11:00N 54°29' E 010°05'1 2.8
2020-Jul-02 10:30N 54°30' E 010°03'3 3.0
2020-Jul-02 09:30N 54°29' E 009°58'1 2.8
2020-Jul-02 09:00N 54°29' E 009°56'3 1.3
2020-Jul-02 06:30N 54°28' E 009°50'0 0.0
2020-Jul-02 04:00N 54°28' E 009°50'0 0.0
2020-Jul-02 03:30N 54°28' E 009°50'0 0.0
2020-Jul-02 02:30N 54°28' E 009°50'0 0.0
2020-Jul-02 01:30N 54°28' E 009°50'0 0.0
2020-Jul-01 23:30N 54°28' E 009°50'0 0.0
2020-Jul-01 18:30N 54°28' E 009°50'0 0.0
2020-Jul-01 16:00N 54°28' E 009°50'0 0.0
2020-Jul-01 13:30N 54°28' E 009°50'11 1.4
2020-Jul-01 05:24N 54°39' E 009°56'0 0.0
2020-Jul-01 04:00N 54°39' E 009°56'0 0.0
2020-Jul-01 02:29N 54°39' E 009°56'0 0.0
2020-Jul-01 00:00N 54°39' E 009°56'0 0.0
2020-Jun-30 21:30N 54°39' E 009°56'0 0.0
2020-Jun-30 18:30N 54°39' E 009°56'0 0.0
2020-Jun-30 18:00N 54°39' E 009°56'0 0.0
2020-Jun-30 15:10N 54°39' E 009°56'0 0.0
2020-Jun-30 14:30N 54°39' E 009°56'0 0.0
2020-Jun-30 13:30N 54°39' E 009°56'0 0.0
2020-Jun-30 11:38N 54°39' E 009°56'0 0.0
2020-Jun-30 07:30N 54°39' E 009°56'0 0.0
2020-Jun-30 06:28N 54°39' E 009°56'0 0.0
2020-Jun-30 03:30N 54°39' E 009°56'0 0.0
2020-Jun-30 02:30N 54°39' E 009°56'0 0.0
2020-Jun-30 00:30N 54°39' E 009°56'0 0.0
2020-Jun-29 23:00N 54°39' E 009°56'0 0.0
2020-Jun-29 22:29N 54°39' E 009°56'0 0.0
2020-Jun-29 21:30N 54°39' E 009°56'0 0.0
2020-Jun-29 16:25N 54°39' E 009°56'0 0.0
2020-Jun-29 16:00N 54°39' E 009°56'0 0.0
2020-Jun-29 13:57N 54°39' E 009°56'0 0.0
2020-Jun-29 13:30N 54°39' E 009°56'4 0.4
2020-Jun-29 05:29N 54°40' E 010°02'0 0.0
2020-Jun-29 04:27N 54°40' E 010°02'0 0.0
2020-Jun-29 00:26N 54°40' E 010°02'0 0.0
2020-Jun-28 23:30N 54°40' E 010°02'0 0.0
2020-Jun-28 22:30N 54°40' E 010°02'0 0.0
2020-Jun-28 22:00N 54°40' E 010°02'0 0.0
2020-Jun-28 21:30N 54°40' E 010°02'4 0.5
2020-Jun-28 13:30N 54°44' E 010°02'9 5.8
2020-Jun-28 12:00N 54°36' E 010°04'16 3.6
2020-Jun-28 07:30N 54°20' E 010°09'0 0.0
2020-Jun-28 05:00N 54°20' E 010°09'0 0.0
2020-Jun-28 02:30N 54°20' E 010°09'0 0.0
2020-Jun-28 01:30N 54°20' E 010°09'0 0.0
2020-Jun-27 23:00N 54°20' E 010°09'0 0.0
2020-Jun-27 22:30N 54°20' E 010°09'0 0.0
2020-Jun-27 19:30N 54°20' E 010°09'0 0.0
2020-Jun-27 19:00N 54°20' E 010°09'0 0.0
2020-Jun-27 16:30N 54°20' E 010°09'0 0.0
2020-Jun-27 14:00N 54°20' E 010°09'0 0.0
2020-Jun-27 13:30N 54°20' E 010°09'0 0.0
2020-Jun-27 09:30N 54°20' E 010°09'0 0.0
2020-Jun-27 08:00N 54°20' E 010°09'0 0.0
2020-Jun-27 07:30N 54°20' E 010°09'0 0.0
2020-Jun-27 06:00N 54°20' E 010°09'0 0.0
2020-Jun-27 02:30N 54°20' E 010°09'0 0.0
2020-Jun-27 02:00N 54°20' E 010°09'0 0.0
2020-Jun-27 01:00N 54°20' E 010°09'0 0.0
2020-Jun-26 23:00N 54°20' E 010°09'0 0.0
2020-Jun-26 21:00N 54°20' E 010°09'0 0.0
2020-Jun-26 20:30N 54°20' E 010°09'0 0.0
2020-Jun-26 19:00N 54°20' E 010°09'0 0.0
2020-Jun-26 17:30N 54°20' E 010°09'0 0.0
2020-Jun-26 16:00N 54°20' E 010°09'0 0.0
2020-Jun-26 14:00N 54°20' E 010°09'0 0.0
2020-Jun-26 13:00N 54°20' E 010°09'0 0.0
2020-Jun-26 12:30N 54°20' E 010°09'0 0.0
2020-Jun-26 12:00N 54°20' E 010°09'0 0.0
2020-Jun-26 11:30N 54°20' E 010°09'0 0.0
2020-Jun-26 11:00N 54°20' E 010°09'0 0.0
2020-Jun-26 08:00N 54°20' E 010°09'0 0.0
2020-Jun-26 07:30N 54°20' E 010°09'0 0.0
2020-Jun-26 07:00N 54°20' E 010°09'0 0.0
2020-Jun-26 06:00N 54°20' E 010°09'0 0.0
2020-Jun-26 05:30N 54°20' E 010°09'0 0.0
2020-Jun-26 02:30N 54°20' E 010°09'0 0.0
2020-Jun-26 00:30N 54°20' E 010°09'0 0.0
2020-Jun-25 20:00N 54°20' E 010°09'0 0.0
2020-Jun-25 19:00N 54°20' E 010°09'0 0.0
2020-Jun-25 18:00N 54°20' E 010°09'0 0.0
2020-Jun-25 16:30N 54°20' E 010°09'0 0.0
2020-Jun-25 14:30N 54°20' E 010°09'0 0.0
2020-Jun-25 13:00N 54°20' E 010°09'0 0.0
2020-Jun-25 12:30N 54°20' E 010°09'0 0.0
2020-Jun-25 12:00N 54°20' E 010°09'0 0.0
2020-Jun-25 11:30N 54°20' E 010°09'0 0.0
2020-Jun-25 09:30N 54°20' E 010°09'0 0.0
2020-Jun-25 08:30N 54°20' E 010°09'0 0.0
2020-Jun-25 05:00N 54°20' E 010°09'0 0.0
2020-Jun-25 04:00N 54°20' E 010°09'0 0.0
2020-Jun-25 03:00N 54°20' E 010°09'0 0.0
2020-Jun-25 02:00N 54°20' E 010°09'0 0.0
2020-Jun-25 01:30N 54°20' E 010°09'0 0.0
2020-Jun-25 00:00N 54°20' E 010°09'0 0.0
2020-Jun-24 21:00N 54°20' E 010°09'0 0.0
2020-Jun-24 18:30N 54°20' E 010°09'0 0.0
2020-Jun-24 15:30N 54°20' E 010°09'0 0.0
2020-Jun-24 14:00N 54°20' E 010°09'6 3.1
2020-Jun-24 12:00N 54°26' E 010°12'1 2.4
2020-Jun-24 11:30N 54°27' E 010°13'7 4.6
2020-Jun-24 10:00N 54°30' E 010°02'7 2.2
2020-Jun-24 06:58N 54°28' E 009°51'0 0.0
2020-Jun-24 05:57N 54°28' E 009°51'0 0.0
2020-Jun-24 00:58N 54°28' E 009°51'0 0.0
2020-Jun-23 22:00N 54°28' E 009°51'0 0.0
2020-Jun-23 21:08N 54°28' E 009°51'0 0.0
2020-Jun-23 18:27N 54°28' E 009°51'0 0.0
2020-Jun-23 17:30N 54°28' E 009°51'2 0.5
2020-Jun-23 13:30N 54°28' E 009°54'4 1.7
2020-Jun-23 11:00N 54°30' E 009°60'1 1.8
2020-Jun-23 10:30N 54°31' E 010°01'1 2.9
2020-Jun-23 10:00N 54°32' E 010°02'2 3.6
2020-Jun-23 09:30N 54°34' E 010°02'4 4.0
2020-Jun-23 08:30N 54°38' E 010°03'1 0.3
2020-Jun-23 05:27N 54°39' E 010°02'0 0.0
2020-Jun-23 04:42N 54°39' E 010°02'0 0.0
2020-Jun-23 04:00N 54°39' E 010°02'0 0.0
2020-Jun-23 03:00N 54°39' E 010°02'0 0.0
2020-Jun-23 01:29N 54°39' E 010°02'0 0.0
2020-Jun-22 23:30N 54°39' E 010°02'0 0.0
2020-Jun-22 21:24N 54°39' E 010°02'0 0.0
2020-Jun-22 20:44N 54°39' E 010°02'0 0.0
2020-Jun-22 20:30N 54°39' E 010°02'0 0.0
2020-Jun-22 20:00N 54°39' E 010°02'0 0.0
2020-Jun-22 16:30N 54°39' E 010°02'  

Dump ship's entire track history